createdAt,value
2018-04-23T00:00:24.829Z,20.87
2018-04-23T00:02:51.822Z,20.17
2018-04-23T00:05:18.871Z,19.43
2018-04-23T00:07:45.922Z,21.77
2018-04-23T00:10:13.118Z,19.87
2018-04-23T00:12:40.115Z,18.03
2018-04-23T00:15:07.882Z,20.10
2018-04-23T00:17:35.645Z,19.47
2018-04-23T00:20:02.599Z,19.87
2018-04-23T00:22:29.642Z,19.87
2018-04-23T00:24:56.792Z,20.27
2018-04-23T00:27:23.841Z,19.60
2018-04-23T00:29:51.950Z,20.03
2018-04-23T00:35:05.365Z,19.03
2018-04-23T00:37:33.591Z,19.80
2018-04-23T00:40:00.534Z,21.07
2018-04-23T00:42:28.519Z,21.50
2018-04-23T00:44:55.504Z,20.87
2018-04-23T00:47:23.579Z,21.73
2018-04-23T00:49:51.508Z,21.63
2018-04-23T00:52:18.496Z,20.50
2018-04-23T00:54:45.542Z,20.70
2018-04-23T00:57:12.596Z,22.97
2018-04-23T00:59:40.562Z,21.30
2018-04-23T01:02:07.612Z,20.50
2018-04-23T01:04:34.599Z,21.33
2018-04-23T01:07:01.604Z,20.73
2018-04-23T01:09:28.658Z,20.97
2018-04-23T01:11:55.809Z,21.30
2018-04-23T01:14:22.798Z,20.13
2018-04-23T01:16:49.691Z,20.67
2018-04-23T01:19:16.743Z,21.50
2018-04-23T01:21:43.797Z,20.83
2018-04-23T01:24:10.842Z,20.83
2018-04-23T01:26:37.896Z,23.07
2018-04-23T01:29:04.945Z,23.10
2018-04-23T01:31:31.988Z,23.80
2018-04-23T01:33:59.036Z,23.37
2018-04-23T01:36:26.094Z,22.27
2018-04-23T01:38:53.133Z,22.43
2018-04-23T01:41:20.133Z,23.73
2018-04-23T01:43:47.128Z,22.47
2018-04-23T01:46:14.180Z,22.33
2018-04-23T01:48:59.981Z,22.97
2018-04-23T01:51:37.103Z,21.33
2018-04-23T01:54:05.332Z,20.03
2018-04-23T01:56:32.530Z,19.67
2018-04-23T01:59:09.030Z,19.80
2018-04-23T02:01:43.169Z,20.30
2018-04-23T02:04:20.202Z,18.03
2018-04-23T02:06:58.629Z,19.23
2018-04-23T02:09:32.202Z,18.83
2018-04-23T02:12:07.185Z,18.70
2018-04-23T02:14:34.245Z,17.93
2018-04-23T02:17:01.304Z,17.50
2018-04-23T02:19:29.064Z,17.10
2018-04-23T02:21:56.006Z,16.17
2018-04-23T02:24:23.060Z,16.30
2018-04-23T02:26:50.101Z,15.63
2018-04-23T02:29:17.252Z,16.63
2018-04-23T02:31:45.168Z,16.40
2018-04-23T02:34:12.171Z,15.50
2018-04-23T02:36:39.219Z,15.10
2018-04-23T02:39:06.278Z,15.13
2018-04-23T02:41:33.316Z,14.17
2018-04-23T02:44:00.364Z,13.80
2018-04-23T02:46:27.419Z,14.23
2018-04-23T02:48:54.409Z,14.13
2018-04-23T02:51:21.413Z,13.73
2018-04-23T02:53:48.458Z,14.10
2018-04-23T02:56:15.506Z,13.10
2018-04-23T02:58:42.565Z,13.63
2018-04-23T03:01:09.602Z,12.80
2018-04-23T03:03:36.651Z,12.20
2018-04-23T03:06:03.708Z,13.30
2018-04-23T03:08:32.396Z,12.17
2018-04-23T03:10:59.741Z,11.80
2018-04-23T03:13:26.789Z,12.60
2018-04-23T03:15:53.844Z,11.30
2018-04-23T03:18:20.887Z,11.70
2018-04-23T03:20:47.841Z,12.10
2018-04-23T03:23:14.882Z,10.83
2018-04-23T03:25:41.931Z,11.03
2018-04-23T03:28:08.985Z,11.93
2018-04-23T03:30:35.925Z,11.10
2018-04-23T03:33:02.973Z,10.40
2018-04-23T03:35:30.028Z,11.13
2018-04-23T03:37:57.071Z,10.67
2018-04-23T03:40:24.120Z,11.67
2018-04-23T03:42:51.173Z,10.77
2018-04-23T03:45:18.215Z,10.70
2018-04-23T03:47:45.166Z,10.67
2018-04-23T03:50:12.160Z,10.40
2018-04-23T03:52:39.161Z,10.27
2018-04-23T03:55:06.206Z,10.30
2018-04-23T03:57:33.254Z,9.93
2018-04-23T04:00:00.258Z,10.63
2018-04-23T04:02:27.250Z,9.37
2018-04-23T04:04:54.304Z,10.80
2018-04-23T04:07:21.345Z,10.43
2018-04-23T04:09:49.526Z,10.20
2018-04-23T04:12:23.532Z,10.17
2018-04-23T04:14:56.524Z,10.50
2018-04-23T04:17:29.612Z,10.40
2018-04-23T04:19:56.660Z,9.23
2018-04-23T04:22:23.715Z,10.27
2018-04-23T04:24:51.065Z,10.23
2018-04-23T04:27:18.113Z,10.27
2018-04-23T04:29:45.058Z,10.10
2018-04-23T04:32:12.107Z,9.97
2018-04-23T04:34:39.161Z,9.40
2018-04-23T04:37:06.818Z,9.83
2018-04-23T04:39:33.867Z,10.07
2018-04-23T04:42:00.921Z,9.03
2018-04-23T04:44:27.963Z,9.93
2018-04-23T04:46:54.983Z,9.20
2018-04-23T04:49:22.008Z,10.13
2018-04-23T04:51:49.009Z,9.47
2018-04-23T04:54:16.070Z,9.27
2018-04-23T04:56:43.104Z,8.67
2018-04-23T04:59:10.152Z,9.13
2018-04-23T05:01:37.406Z,9.47
2018-04-23T05:04:04.454Z,9.57
2018-04-23T05:06:31.508Z,8.50
2018-04-23T05:08:58.553Z,8.90
2018-04-23T05:11:25.600Z,8.53
2018-04-23T05:13:53.576Z,8.97
2018-04-23T05:16:20.621Z,8.60
2018-04-23T05:18:47.668Z,8.43
2018-04-23T05:21:14.675Z,8.90
2018-04-23T05:23:41.811Z,7.53
2018-04-23T05:26:09.121Z,7.93
2018-04-23T05:28:36.024Z,8.47
2018-04-23T05:31:03.018Z,7.63
2018-04-23T05:33:30.476Z,8.57
2018-04-23T05:35:57.521Z,8.23
2018-04-23T05:38:25.796Z,8.03
2018-04-23T05:40:52.787Z,8.80
2018-04-23T05:43:19.795Z,8.30
2018-04-23T05:45:46.742Z,7.60
2018-04-23T05:48:13.788Z,7.70
2018-04-23T05:50:40.841Z,7.40
2018-04-23T05:53:07.886Z,7.50
2018-04-23T05:55:34.936Z,8.30
2018-04-23T05:58:01.985Z,8.10
2018-04-23T06:00:29.446Z,7.63
2018-04-23T06:02:56.486Z,8.03
2018-04-23T06:05:23.533Z,7.80
2018-04-23T06:07:50.590Z,8.10
2018-04-23T06:10:17.632Z,7.43
2018-04-23T06:12:44.794Z,7.30
2018-04-23T06:15:11.831Z,7.93
2018-04-23T06:17:38.884Z,7.00
2018-04-23T06:20:05.927Z,7.67
2018-04-23T06:22:32.978Z,7.13
2018-04-23T06:25:00.029Z,6.93
2018-04-23T06:27:26.897Z,7.33
2018-04-23T06:29:54.028Z,7.60
2018-04-23T06:32:21.071Z,7.60
2018-04-23T06:34:48.115Z,7.60
2018-04-23T06:37:15.066Z,7.23
2018-04-23T06:39:42.211Z,7.00
2018-04-23T06:42:09.261Z,6.80
2018-04-23T06:44:36.314Z,6.60
2018-04-23T06:47:03.358Z,6.90
2018-04-23T06:49:30.406Z,6.70
2018-04-23T06:51:58.321Z,6.60
2018-04-23T06:54:25.842Z,6.73
2018-04-23T06:56:53.299Z,7.17
2018-04-23T06:59:20.343Z,6.33
2018-04-23T07:01:47.715Z,7.20
2018-04-23T07:04:15.060Z,6.93
2018-04-23T07:06:42.106Z,6.67
2018-04-23T07:09:09.099Z,7.07
2018-04-23T07:11:36.303Z,7.40
2018-04-23T07:14:03.247Z,5.83
2018-04-23T07:16:30.297Z,6.87
2018-04-23T07:18:57.349Z,7.40
2018-04-23T07:21:24.393Z,6.70
2018-04-23T07:23:51.441Z,6.37
2018-04-23T07:26:18.495Z,6.57
2018-04-23T07:28:45.538Z,6.57
2018-04-23T07:31:12.589Z,6.23
2018-04-23T07:33:40.047Z,6.63
2018-04-23T07:36:07.100Z,6.20
2018-04-23T07:38:34.042Z,6.53
2018-04-23T07:41:01.239Z,7.23
2018-04-23T07:43:28.250Z,6.83
2018-04-23T07:45:55.186Z,6.77
2018-04-23T07:48:22.442Z,6.53
2018-04-23T07:50:49.492Z,7.20
2018-04-23T07:53:16.543Z,7.23
2018-04-23T07:55:43.587Z,7.47
2018-04-23T07:58:11.352Z,6.67
2018-04-23T08:00:38.402Z,6.40
2018-04-23T08:03:05.967Z,6.93
2018-04-23T08:05:33.327Z,6.50
2018-04-23T08:08:00.369Z,6.27
2018-04-23T08:10:27.414Z,6.67
2018-04-23T08:12:54.464Z,6.53
2018-04-23T08:15:21.522Z,7.30
2018-04-23T08:17:48.665Z,7.40
2018-04-23T08:20:15.817Z,7.47
2018-04-23T08:22:42.860Z,7.50
2018-04-23T08:25:10.426Z,7.83
2018-04-23T08:27:37.368Z,9.03
2018-04-23T08:30:05.543Z,8.87
2018-04-23T08:32:32.801Z,7.97
2018-04-23T08:34:59.742Z,8.13
2018-04-23T08:37:26.866Z,8.03
2018-04-23T08:39:54.459Z,8.07
2018-04-23T08:42:21.454Z,8.30
2018-04-23T08:44:48.450Z,8.60
2018-04-23T08:47:16.017Z,8.10
2018-04-23T08:49:43.066Z,7.50
2018-04-23T08:52:10.416Z,8.60
2018-04-23T08:54:37.976Z,7.60
2018-04-23T08:57:05.030Z,5.30
2018-04-23T08:59:32.080Z,5.27
2018-04-23T09:02:00.248Z,4.53
2018-04-23T09:04:27.307Z,4.30
2018-04-23T09:06:56.328Z,4.87
2018-04-23T09:09:24.062Z,5.27
2018-04-23T09:11:51.104Z,5.23
2018-04-23T09:14:19.209Z,5.20
2018-04-23T09:16:46.230Z,4.70
2018-04-23T09:19:13.279Z,4.63
2018-04-23T09:21:41.858Z,4.90
2018-04-23T09:24:08.908Z,4.47
2018-04-23T09:26:36.778Z,3.37
2018-04-23T09:29:03.822Z,3.87
2018-04-23T09:31:30.917Z,3.60
2018-04-23T09:33:57.921Z,3.80
2018-04-23T09:36:24.969Z,3.37
2018-04-23T09:38:51.914Z,4.13
2018-04-23T09:41:18.962Z,4.20
2018-04-23T09:43:46.034Z,4.57
2018-04-23T09:46:13.059Z,4.55
2018-04-23T09:48:40.115Z,4.55
2018-04-23T09:51:07.164Z,4.47
2018-04-23T09:53:34.149Z,5.70
2018-04-23T09:56:01.157Z,4.62
2018-04-23T09:58:28.309Z,4.22
2018-04-23T10:00:55.251Z,4.20
2018-04-23T10:03:26.191Z,3.50
2018-04-23T10:05:53.240Z,4.22
2018-04-23T10:08:20.292Z,4.95
2018-04-23T10:10:47.339Z,4.80
2018-04-23T10:13:14.338Z,5.03
2018-04-23T10:15:41.331Z,5.03
2018-04-23T10:18:08.381Z,4.32
2018-04-23T10:20:35.330Z,4.50
2018-04-23T10:23:02.334Z,4.35
2018-04-23T10:25:29.320Z,3.17
2018-04-23T10:27:56.370Z,3.67
2018-04-23T10:30:23.465Z,3.97
2018-04-23T10:32:50.671Z,4.22
2018-04-23T10:35:17.728Z,4.15
2018-04-23T10:37:44.715Z,4.20
2018-04-23T10:40:11.817Z,3.92
2018-04-23T10:42:38.968Z,3.72
2018-04-23T10:45:06.022Z,3.60
2018-04-23T10:47:33.067Z,4.20
2018-04-23T10:50:00.114Z,4.12
2018-04-23T10:52:27.167Z,4.25
2018-04-23T10:54:54.212Z,3.92
2018-04-23T10:57:21.306Z,3.90
2018-04-23T10:59:48.313Z,3.50
2018-04-23T11:02:15.363Z,3.70
2018-04-23T11:04:42.657Z,3.87
2018-04-23T11:07:10.580Z,3.37
2018-04-23T11:09:37.544Z,2.87
2018-04-23T11:12:04.575Z,3.20
2018-04-23T11:14:31.624Z,3.50
2018-04-23T11:16:59.697Z,3.25
2018-04-23T11:19:26.750Z,3.40
2018-04-23T11:21:55.441Z,2.70
2018-04-23T11:24:22.587Z,3.12
2018-04-23T11:26:49.527Z,2.67
2018-04-23T11:29:16.524Z,3.08
2018-04-23T11:31:43.627Z,2.67
2018-04-23T11:34:10.679Z,2.90
2018-04-23T11:36:37.669Z,2.53
2018-04-23T11:39:07.953Z,2.60
2018-04-23T11:41:34.946Z,2.70
2018-04-23T11:44:01.948Z,2.60
2018-04-23T11:46:30.261Z,2.80
2018-04-23T11:48:57.370Z,2.60
2018-04-23T11:51:24.417Z,3.12
2018-04-23T11:53:51.475Z,2.58
2018-04-23T11:56:18.628Z,2.62
2018-04-23T11:58:45.665Z,2.62
2018-04-23T12:01:12.822Z,3.20
2018-04-23T12:03:40.690Z,3.22
2018-04-23T12:06:07.733Z,3.22
2018-04-23T12:08:35.806Z,3.00
2018-04-23T12:11:02.855Z,2.78
2018-04-23T12:13:30.721Z,3.05
2018-04-23T12:15:58.795Z,3.00
2018-04-23T12:18:26.868Z,2.47
2018-04-23T12:20:54.981Z,2.83
2018-04-23T12:23:21.989Z,2.80
2018-04-23T12:25:49.043Z,2.80
2018-04-23T12:28:16.905Z,2.70
2018-04-23T12:30:43.851Z,2.30
2018-04-23T12:33:10.802Z,2.90
2018-04-23T12:35:39.182Z,3.15
2018-04-23T12:38:06.737Z,2.70
2018-04-23T12:40:33.792Z,3.42
2018-04-23T12:43:01.865Z,2.72
2018-04-23T12:45:28.851Z,2.80
2018-04-23T12:47:55.860Z,2.47
2018-04-23T12:50:22.847Z,2.58
2018-04-23T12:52:49.854Z,2.50
2018-04-23T12:55:16.897Z,2.67
2018-04-23T12:57:43.945Z,2.72
2018-04-23T13:00:11.000Z,2.95
2018-04-23T13:02:38.506Z,2.55
2018-04-23T13:05:05.501Z,2.50
2018-04-23T13:07:32.550Z,2.90
2018-04-23T13:09:59.604Z,2.80
2018-04-23T13:12:26.645Z,3.17
2018-04-23T13:14:53.693Z,2.87
2018-04-23T13:17:20.641Z,2.60
2018-04-23T13:19:47.690Z,2.92
2018-04-23T13:22:14.745Z,3.17
2018-04-23T13:24:41.787Z,3.20
2018-04-23T13:27:08.882Z,2.85
2018-04-23T13:29:35.987Z,3.67
2018-04-23T13:32:04.107Z,3.05
2018-04-23T13:34:31.114Z,2.97
2018-04-23T13:36:58.156Z,2.80
2018-04-23T13:39:25.210Z,2.72
2018-04-23T13:41:53.389Z,2.47
2018-04-23T13:44:20.429Z,3.22
2018-04-23T13:46:49.263Z,3.15
2018-04-23T13:49:16.369Z,2.25
2018-04-23T13:51:44.032Z,3.03
2018-04-23T13:54:11.087Z,2.67
2018-04-23T13:56:38.137Z,2.70
2018-04-23T13:59:06.309Z,2.72
2018-04-23T14:01:33.491Z,2.62
2018-04-23T14:04:00.503Z,2.55
2018-04-23T14:06:27.551Z,2.70
2018-04-23T14:08:54.605Z,2.87
2018-04-23T14:11:21.650Z,2.90
2018-04-23T14:13:48.649Z,2.62
2018-04-23T14:16:15.751Z,2.75
2018-04-23T14:18:42.903Z,2.70
2018-04-23T14:21:09.946Z,2.70
2018-04-23T14:23:38.437Z,2.97
2018-04-23T14:26:05.478Z,2.60
2018-04-23T14:28:32.529Z,3.10
2018-04-23T14:31:00.706Z,2.90
2018-04-23T14:33:27.754Z,2.80
2018-04-23T14:35:54.805Z,2.80
2018-04-23T14:38:23.024Z,3.20
2018-04-23T14:40:50.642Z,2.83
2018-04-23T14:43:18.504Z,2.87
2018-04-23T14:45:45.422Z,2.80
2018-04-23T14:48:12.409Z,3.28
2018-04-23T14:50:39.445Z,2.67
2018-04-23T14:53:06.502Z,2.60
2018-04-23T14:55:33.547Z,2.67
2018-04-23T14:58:00.591Z,2.80
2018-04-23T15:00:27.948Z,2.42
2018-04-23T15:02:55.014Z,3.10
2018-04-23T15:05:22.043Z,2.90
2018-04-23T15:07:49.090Z,3.10
2018-04-23T15:10:16.145Z,2.92
2018-04-23T15:12:43.601Z,3.33
2018-04-23T15:15:10.754Z,3.78
2018-04-23T15:17:37.797Z,3.15
2018-04-23T15:20:05.515Z,3.70
2018-04-23T15:22:32.512Z,3.25
2018-04-23T15:25:00.375Z,3.50
2018-04-23T15:27:27.429Z,3.47
2018-04-23T15:29:54.472Z,3.92
2018-04-23T15:32:21.520Z,4.07
2018-04-23T15:34:48.573Z,3.72
2018-04-23T15:37:15.516Z,3.72
2018-04-23T15:39:42.569Z,3.58
2018-04-23T15:42:09.616Z,3.42
2018-04-23T15:44:36.871Z,4.18
2018-04-23T15:47:03.915Z,3.47
2018-04-23T15:49:30.963Z,3.75
2018-04-23T15:51:58.018Z,3.30
2018-04-23T15:54:25.061Z,3.28
2018-04-23T15:56:52.110Z,3.67
2018-04-23T15:59:19.164Z,3.75
2018-04-23T16:01:46.206Z,3.67
2018-04-23T16:04:14.177Z,3.83
2018-04-23T16:06:41.230Z,3.40
2018-04-23T16:09:08.688Z,3.60
2018-04-23T16:11:35.630Z,3.67
2018-04-23T16:14:02.625Z,3.75
2018-04-23T16:16:29.625Z,4.47
2018-04-23T16:18:56.681Z,4.80
2018-04-23T16:21:23.722Z,4.57
2018-04-23T16:23:50.771Z,4.85
2018-04-23T16:26:17.824Z,4.30
2018-04-23T16:28:44.814Z,4.47
2018-04-23T16:31:12.019Z,4.40
2018-04-23T16:33:39.069Z,4.68
2018-04-23T16:36:07.439Z,4.75
2018-04-23T16:38:34.350Z,4.32
2018-04-23T16:41:01.344Z,4.80
2018-04-23T16:43:28.388Z,4.50
2018-04-23T16:45:55.396Z,4.80
2018-04-23T16:48:22.355Z,5.07
2018-04-23T16:50:49.432Z,4.55
2018-04-23T16:53:16.485Z,4.75
2018-04-23T16:55:43.531Z,4.15
2018-04-23T16:58:10.481Z,4.55
2018-04-23T17:00:37.523Z,4.57
2018-04-23T17:03:04.573Z,4.28
2018-04-23T17:05:31.627Z,4.68
2018-04-23T17:07:59.032Z,4.50
2018-04-23T17:10:26.027Z,4.75
2018-04-23T17:12:53.177Z,4.72
2018-04-23T17:15:20.327Z,5.00
2018-04-23T17:17:47.384Z,4.72
2018-04-23T17:20:14.427Z,4.97
2018-04-23T17:22:41.477Z,4.93
2018-04-23T17:25:08.529Z,4.75
2018-04-23T17:27:36.800Z,5.40
2018-04-23T17:30:03.851Z,5.57
2018-04-23T17:32:31.413Z,5.37
2018-04-23T17:34:58.462Z,4.87
2018-04-23T17:37:25.511Z,4.85
2018-04-23T17:39:52.861Z,4.50
2018-04-23T17:42:19.911Z,5.32
2018-04-23T17:44:46.964Z,4.90
2018-04-23T17:47:14.523Z,5.12
2018-04-23T17:49:41.575Z,4.90
2018-04-23T17:52:08.617Z,5.53
2018-04-23T17:54:36.186Z,5.45
2018-04-23T17:57:03.228Z,6.03
2018-04-23T17:59:30.279Z,6.60
2018-04-23T18:01:57.838Z,7.30
2018-04-23T18:04:24.908Z,7.07
2018-04-23T18:06:51.940Z,7.87
2018-04-23T18:09:20.108Z,7.68
2018-04-23T18:11:47.976Z,8.05
2018-04-23T18:14:15.849Z,9.05
2018-04-23T18:16:42.892Z,8.27
2018-04-23T18:19:10.459Z,9.27
2018-04-23T18:21:37.809Z,8.95
2018-04-23T18:24:04.858Z,8.45
2018-04-23T18:26:32.010Z,9.35
2018-04-23T18:28:59.063Z,9.10
2018-04-23T18:31:26.725Z,9.75
2018-04-23T18:33:53.769Z,9.18
2018-04-23T18:36:20.920Z,9.60
2018-04-23T18:38:48.437Z,10.32
2018-04-23T18:41:15.375Z,10.55
2018-04-23T18:43:42.584Z,10.82
2018-04-23T18:46:09.734Z,11.47
2018-04-23T18:48:36.778Z,11.27
2018-04-23T18:51:03.826Z,12.00
2018-04-23T18:53:51.775Z,13.23
2018-04-23T18:56:18.813Z,11.63
2018-04-23T18:58:46.073Z,12.52
2018-04-23T19:01:13.170Z,12.30
2018-04-23T19:03:40.164Z,11.27
2018-04-23T19:06:07.417Z,11.87
2018-04-23T19:08:34.466Z,11.20
2018-04-23T19:11:02.491Z,12.40
2018-04-23T19:13:29.485Z,12.60
2018-04-23T19:15:57.000Z,13.37
2018-04-23T19:18:25.123Z,13.03
2018-04-23T19:20:54.042Z,13.73
2018-04-23T19:23:21.058Z,14.90
2018-04-23T19:25:48.112Z,14.77
2018-04-23T19:28:15.668Z,14.87
2018-04-23T19:30:42.660Z,13.43
2018-04-23T19:33:09.872Z,14.47
2018-04-23T19:35:37.478Z,13.57
2018-04-23T19:38:04.929Z,14.13
2018-04-23T19:40:33.878Z,14.37
2018-04-23T19:43:00.933Z,14.50
2018-04-23T19:45:28.488Z,14.80
2018-04-23T19:47:55.815Z,14.00
2018-04-23T19:50:22.893Z,15.17
2018-04-23T19:52:49.941Z,13.93
2018-04-23T19:55:17.095Z,14.50
2018-04-23T19:57:44.147Z,15.47
2018-04-23T20:00:12.624Z,16.03
2018-04-23T20:02:39.571Z,15.43
2018-04-23T20:05:06.619Z,15.07
2018-04-23T20:07:33.618Z,16.27
2018-04-23T20:10:00.715Z,15.27
2018-04-23T20:12:27.763Z,16.53
2018-04-23T20:14:54.820Z,16.13
2018-04-23T20:17:22.631Z,15.43
2018-04-23T20:19:50.756Z,15.57
2018-04-23T20:22:17.905Z,15.87
2018-04-23T20:24:44.959Z,16.13
2018-04-23T20:27:12.110Z,16.17
2018-04-23T20:29:39.700Z,16.53
2018-04-23T20:32:06.719Z,15.10
2018-04-23T20:34:33.761Z,16.10
2018-04-23T20:37:00.912Z,16.03
2018-04-23T20:39:27.960Z,16.43
2018-04-23T20:41:55.015Z,16.83
2018-04-23T20:44:22.154Z,16.83
2018-04-23T20:46:49.320Z,15.57
2018-04-23T20:49:16.359Z,15.67
2018-04-23T20:51:45.358Z,16.47
2018-04-23T20:54:12.403Z,16.80
2018-04-23T20:56:40.475Z,18.40
2018-04-23T20:59:07.840Z,18.17
2018-04-23T21:01:36.007Z,17.77
2018-04-23T21:04:03.060Z,18.03
2018-04-23T21:06:30.104Z,18.73
2018-04-23T21:08:57.669Z,18.77
2018-04-23T21:11:24.713Z,17.27
2018-04-23T21:13:52.117Z,18.30
2018-04-23T21:16:19.126Z,18.93
2018-04-23T21:18:46.167Z,19.13
2018-04-23T21:21:13.215Z,20.13
2018-04-23T21:23:40.269Z,19.87
2018-04-23T21:26:07.312Z,20.53
2018-04-23T21:28:34.361Z,19.30
2018-04-23T21:31:01.420Z,20.60
2018-04-23T21:33:28.460Z,20.87
2018-04-23T21:35:55.454Z,21.17
2018-04-23T21:38:22.452Z,21.80
2018-04-23T21:40:49.501Z,20.40
2018-04-23T21:43:16.557Z,21.60
2018-04-23T21:45:43.496Z,21.33
2018-04-23T21:48:10.550Z,20.43
2018-04-23T21:50:37.594Z,20.13
2018-04-23T21:53:04.642Z,19.90
2018-04-23T21:55:31.696Z,20.73
2018-04-23T21:57:58.739Z,20.30
2018-04-23T22:00:25.890Z,20.80
2018-04-23T22:02:52.848Z,21.10
2018-04-23T22:05:19.895Z,20.97
2018-04-23T22:07:46.934Z,21.27
2018-04-23T22:10:13.925Z,22.80
2018-04-23T22:12:40.929Z,24.10
2018-04-23T22:15:07.982Z,26.37
2018-04-23T22:17:35.027Z,25.37
2018-04-23T22:20:02.025Z,26.10
2018-04-23T22:22:29.025Z,25.60
2018-04-23T22:24:56.070Z,22.57
2018-04-23T22:27:23.122Z,21.73
2018-04-23T22:29:50.167Z,22.60
2018-04-23T22:32:17.216Z,21.07
2018-04-23T22:34:44.367Z,21.43
2018-04-23T22:37:12.444Z,22.97
2018-04-23T22:39:39.498Z,22.00
2018-04-23T22:42:06.536Z,21.53
2018-04-23T22:44:33.585Z,22.53
2018-04-23T22:47:00.638Z,23.47
2018-04-23T22:49:27.683Z,23.20
2018-04-23T22:51:55.246Z,24.37
2018-04-23T22:54:22.291Z,25.63
2018-04-23T22:56:49.856Z,25.70
2018-04-23T22:59:18.027Z,26.73
2018-04-23T23:01:45.081Z,24.67
2018-04-23T23:04:12.123Z,24.30
2018-04-23T23:06:41.414Z,24.43
2018-04-23T23:09:08.472Z,25.47
2018-04-23T23:11:35.469Z,24.57
2018-04-23T23:14:02.573Z,24.63
2018-04-23T23:16:29.619Z,23.13
2018-04-23T23:18:56.673Z,23.53
2018-04-23T23:21:24.670Z,24.90
2018-04-23T23:23:52.510Z,24.17
2018-04-23T23:26:20.889Z,23.27
2018-04-23T23:28:47.932Z,24.13
2018-04-23T23:31:16.212Z,24.13
2018-04-23T23:33:43.271Z,26.73
2018-04-23T23:36:10.309Z,24.80
2018-04-23T23:38:37.355Z,22.97
2018-04-23T23:41:04.411Z,24.20
2018-04-23T23:43:31.454Z,22.87
2018-04-23T23:45:58.507Z,21.20
2018-04-23T23:48:25.556Z,22.90
2018-04-23T23:50:52.599Z,24.63
2018-04-23T23:53:19.550Z,24.77
2018-04-23T23:55:46.593Z,23.80
2018-04-23T23:58:13.642Z,22.97
